createdAt,value
2023-09-19T00:01:28.809Z,100.00
2023-09-19T00:03:55.590Z,100.00
2023-09-19T00:06:22.124Z,100.00
2023-09-19T00:08:48.866Z,100.00
2023-09-19T00:11:15.271Z,100.00
2023-09-19T00:13:41.953Z,100.00
2023-09-19T00:16:12.755Z,100.00
2023-09-19T00:18:39.940Z,100.00
2023-09-19T00:21:06.820Z,100.00
2023-09-19T00:23:33.451Z,100.00
2023-09-19T00:26:03.546Z,100.00
2023-09-19T00:28:30.058Z,100.00
2023-09-19T00:30:57.300Z,100.00
2023-09-19T00:33:24.097Z,100.00
2023-09-19T00:35:51.681Z,100.00
2023-09-19T00:38:18.232Z,100.00
2023-09-19T00:40:45.943Z,100.00
2023-09-19T00:43:12.510Z,100.00
2023-09-19T00:45:42.910Z,100.00
2023-09-19T00:48:10.243Z,100.00
2023-09-19T00:50:37.337Z,100.00
2023-09-19T00:53:03.904Z,100.00
2023-09-19T00:55:32.347Z,100.00
2023-09-19T00:57:58.812Z,100.00
2023-09-19T01:00:25.957Z,100.00
2023-09-19T01:02:52.922Z,100.00
2023-09-19T01:05:19.898Z,100.00
2023-09-19T01:07:46.571Z,100.00
2023-09-19T01:10:16.642Z,100.00
2023-09-19T01:13:11.175Z,100.00
2023-09-19T01:15:37.843Z,100.00
2023-09-19T01:18:24.630Z,100.00
2023-09-19T01:21:15.061Z,100.00
2023-09-19T01:24:12.741Z,100.00
2023-09-19T01:27:16.646Z,100.00
2023-09-19T01:29:45.565Z,100.00
2023-09-19T01:32:20.473Z,100.00
2023-09-19T01:34:51.403Z,100.00
2023-09-19T01:37:19.634Z,100.00
2023-09-19T01:39:48.514Z,100.00
2023-09-19T01:42:46.682Z,100.00
2023-09-19T01:45:21.593Z,100.00
2023-09-19T01:47:53.653Z,100.00
2023-09-19T01:50:39.993Z,100.00
2023-09-19T01:53:11.359Z,100.00
2023-09-19T01:55:44.585Z,100.00
2023-09-19T01:58:33.967Z,100.00
2023-09-19T02:01:02.025Z,100.00
2023-09-19T02:03:29.462Z,100.00
2023-09-19T02:05:56.335Z,100.00
2023-09-19T02:08:23.887Z,100.00
2023-09-19T02:10:50.793Z,100.00
2023-09-19T02:13:21.641Z,100.00
2023-09-19T02:15:48.188Z,100.00
2023-09-19T02:18:15.013Z,100.00
2023-09-19T02:20:41.855Z,100.00
2023-09-19T02:23:08.955Z,100.00
2023-09-19T02:25:35.679Z,100.00
2023-09-19T02:28:02.810Z,100.00
2023-09-19T02:30:29.623Z,100.00
2023-09-19T02:32:56.081Z,100.00
2023-09-19T02:35:22.686Z,100.00
2023-09-19T02:37:49.841Z,100.00
2023-09-19T02:40:16.688Z,100.00
2023-09-19T02:42:43.809Z,100.00
2023-09-19T02:45:10.614Z,100.00
2023-09-19T02:47:37.440Z,100.00
2023-09-19T02:50:04.233Z,100.00
2023-09-19T02:52:30.804Z,100.00
2023-09-19T02:54:57.349Z,100.00
2023-09-19T02:57:24.122Z,100.00
2023-09-19T02:59:50.920Z,100.00
2023-09-19T03:02:17.714Z,100.00
2023-09-19T03:04:44.262Z,100.00
2023-09-19T03:07:10.830Z,100.00
2023-09-19T03:09:37.348Z,100.00
2023-09-19T03:12:04.316Z,100.00
2023-09-19T03:14:30.800Z,100.00
2023-09-19T03:16:57.565Z,100.00
2023-09-19T03:19:24.010Z,100.00
2023-09-19T03:21:50.495Z,100.00
2023-09-19T03:24:18.302Z,100.00
2023-09-19T03:26:44.895Z,100.00
2023-09-19T03:29:11.395Z,100.00
2023-09-19T03:31:38.239Z,100.00
2023-09-19T03:34:05.180Z,100.00
2023-09-19T03:36:31.751Z,100.00
2023-09-19T03:38:58.536Z,100.00
2023-09-19T03:41:25.274Z,100.00
2023-09-19T03:43:52.034Z,100.00
2023-09-19T03:46:18.750Z,100.00
2023-09-19T03:48:45.181Z,100.00
2023-09-19T03:51:11.664Z,100.00
2023-09-19T03:53:38.611Z,100.00
2023-09-19T03:56:05.530Z,100.00
2023-09-19T03:58:32.159Z,100.00
2023-09-19T04:00:59.114Z,100.00
2023-09-19T04:03:25.954Z,100.00
2023-09-19T04:05:52.456Z,100.00
2023-09-19T04:08:19.187Z,100.00
2023-09-19T04:10:45.698Z,100.00
2023-09-19T04:13:12.291Z,100.00
2023-09-19T04:15:39.102Z,100.00
2023-09-19T04:18:05.666Z,100.00
2023-09-19T04:20:32.195Z,100.00
2023-09-19T04:22:58.751Z,100.00
2023-09-19T04:25:25.550Z,100.00
2023-09-19T04:27:52.040Z,100.00
2023-09-19T04:30:18.615Z,100.00
2023-09-19T04:32:45.113Z,100.00
2023-09-19T04:35:12.199Z,100.00
2023-09-19T04:37:40.221Z,100.00
2023-09-19T04:40:10.909Z,100.00
2023-09-19T04:42:37.349Z,100.00
2023-09-19T04:45:04.103Z,99.95
2023-09-19T04:47:31.838Z,100.00
2023-09-19T04:49:58.346Z,100.00
2023-09-19T04:52:26.241Z,98.94
2023-09-19T04:54:54.211Z,99.44
2023-09-19T04:57:20.702Z,99.54
2023-09-19T04:59:47.139Z,98.32
2023-09-19T05:02:13.671Z,98.35
2023-09-19T05:04:40.177Z,98.70
2023-09-19T05:07:06.630Z,98.55
2023-09-19T05:09:33.033Z,98.51
2023-09-19T05:11:59.400Z,97.88
2023-09-19T05:14:26.188Z,98.63
2023-09-19T05:16:52.531Z,98.75
2023-09-19T05:19:19.035Z,98.90
2023-09-19T05:21:45.751Z,99.15
2023-09-19T05:24:12.234Z,99.54
2023-09-19T05:26:38.669Z,99.31
2023-09-19T05:29:05.113Z,99.88
2023-09-19T05:31:31.611Z,99.71
2023-09-19T05:33:58.444Z,98.90
2023-09-19T05:36:24.958Z,99.26
2023-09-19T05:38:51.418Z,98.31
2023-09-19T05:41:17.848Z,98.24
2023-09-19T05:43:44.660Z,97.89
2023-09-19T05:46:11.128Z,97.30
2023-09-19T05:48:37.669Z,97.61
2023-09-19T05:51:04.108Z,98.09
2023-09-19T05:53:30.559Z,97.55
2023-09-19T05:55:57.165Z,98.27
2023-09-19T05:58:23.797Z,98.21
2023-09-19T06:00:51.089Z,98.46
2023-09-19T06:03:17.679Z,98.14
2023-09-19T06:05:44.103Z,98.44
2023-09-19T06:08:10.582Z,97.96
2023-09-19T06:10:37.186Z,98.46
2023-09-19T06:13:05.028Z,98.68
2023-09-19T06:15:31.646Z,98.03
2023-09-19T06:17:59.316Z,97.21
2023-09-19T06:20:26.639Z,96.85
2023-09-19T06:22:54.322Z,97.53
2023-09-19T06:25:21.480Z,96.87
2023-09-19T06:27:49.406Z,97.34
2023-09-19T06:30:16.300Z,96.65
2023-09-19T06:32:42.876Z,96.45
2023-09-19T06:35:09.522Z,96.57
2023-09-19T06:37:36.233Z,96.34
2023-09-19T06:40:02.779Z,94.95
2023-09-19T06:42:29.249Z,95.39
2023-09-19T06:44:55.654Z,95.49
2023-09-19T06:47:22.350Z,96.23
2023-09-19T06:49:48.794Z,95.78
2023-09-19T06:52:16.534Z,94.60
2023-09-19T06:54:43.220Z,94.91
2023-09-19T06:57:09.676Z,93.50
2023-09-19T06:59:36.121Z,94.03
2023-09-19T07:02:03.574Z,94.34
2023-09-19T07:04:30.203Z,92.43
2023-09-19T07:06:56.620Z,91.26
2023-09-19T07:09:23.393Z,90.77
2023-09-19T07:11:50.250Z,93.07
2023-09-19T07:14:16.604Z,90.40
2023-09-19T07:16:43.102Z,90.95
2023-09-19T07:19:09.656Z,89.54
2023-09-19T07:21:36.096Z,89.12
2023-09-19T07:24:02.724Z,88.69
2023-09-19T07:26:29.283Z,85.51
2023-09-19T07:28:55.873Z,85.06
2023-09-19T07:31:22.506Z,83.67
2023-09-19T07:33:49.214Z,82.83
2023-09-19T07:36:16.591Z,82.25
2023-09-19T07:38:43.541Z,78.84
2023-09-19T07:41:10.302Z,79.03
2023-09-19T07:43:37.573Z,79.78
2023-09-19T07:46:07.858Z,77.87
2023-09-19T07:48:35.466Z,78.02
2023-09-19T07:51:07.011Z,77.20
2023-09-19T07:53:36.682Z,73.75
2023-09-19T07:56:08.172Z,75.75
2023-09-19T07:58:35.245Z,75.37
2023-09-19T08:01:09.401Z,75.08
2023-09-19T08:03:36.067Z,75.23
2023-09-19T08:06:02.506Z,74.44
2023-09-19T08:08:28.961Z,73.30
2023-09-19T08:10:56.697Z,73.01
2023-09-19T08:13:24.458Z,71.74
2023-09-19T08:15:52.009Z,70.47
2023-09-19T08:18:18.574Z,70.53
2023-09-19T08:20:50.676Z,70.06
2023-09-19T08:23:17.302Z,69.08
2023-09-19T08:25:59.000Z,67.46
2023-09-19T08:28:25.706Z,68.20
2023-09-19T08:30:52.611Z,68.41
2023-09-19T08:33:19.074Z,69.24
2023-09-19T08:35:45.583Z,68.60
2023-09-19T08:38:11.969Z,69.45
2023-09-19T08:40:39.373Z,70.15
2023-09-19T08:43:05.878Z,70.06
2023-09-19T08:45:32.557Z,69.24
2023-09-19T08:48:13.976Z,70.22
2023-09-19T08:50:51.279Z,69.46
2023-09-19T08:53:27.340Z,68.98
2023-09-19T08:55:53.864Z,67.46
2023-09-19T08:58:22.398Z,68.85
2023-09-19T09:00:52.609Z,67.31
2023-09-19T09:03:19.894Z,65.53
2023-09-19T09:05:47.444Z,66.29
2023-09-19T09:08:16.467Z,66.29
2023-09-19T09:10:45.476Z,65.94
2023-09-19T09:13:12.599Z,65.79
2023-09-19T09:15:39.779Z,65.50
2023-09-19T09:18:06.361Z,65.98
2023-09-19T09:20:32.941Z,65.80
2023-09-19T09:22:59.440Z,64.60
2023-09-19T09:25:49.292Z,63.35
2023-09-19T09:28:21.908Z,64.38
2023-09-19T09:30:49.031Z,64.81
2023-09-19T09:33:16.559Z,63.46
2023-09-19T09:35:55.652Z,61.71
2023-09-19T09:38:24.279Z,60.07
2023-09-19T09:43:38.849Z,60.63
2023-09-19T09:44:14.392Z,59.94
2023-09-19T09:46:44.070Z,58.81
2023-09-19T09:49:11.549Z,58.37
2023-09-19T09:51:38.062Z,57.80
2023-09-19T09:54:14.731Z,57.62
2023-09-19T09:57:01.473Z,56.98
2023-09-19T09:59:47.957Z,57.18
2023-09-19T10:02:15.679Z,55.90
2023-09-19T10:04:44.382Z,56.87
2023-09-19T10:07:29.308Z,55.27
2023-09-19T10:09:56.210Z,55.81
2023-09-19T10:12:22.651Z,53.21
2023-09-19T10:14:49.437Z,52.76
2023-09-19T10:17:17.918Z,52.67
2023-09-19T10:19:52.895Z,51.67
2023-09-19T10:22:20.921Z,51.50
2023-09-19T10:25:01.700Z,51.27
2023-09-19T10:27:30.291Z,51.37
2023-09-19T10:29:59.732Z,51.65
2023-09-19T10:32:29.189Z,49.13
2023-09-19T10:34:58.309Z,50.02
2023-09-19T10:37:28.424Z,49.46
2023-09-19T10:39:57.637Z,47.83
2023-09-19T10:42:26.184Z,49.51
2023-09-19T10:44:53.760Z,48.39
2023-09-19T10:47:20.861Z,47.63
2023-09-19T10:49:48.126Z,48.38
2023-09-19T10:52:22.986Z,48.75
2023-09-19T10:54:53.020Z,48.47
2023-09-19T10:57:23.455Z,49.43
2023-09-19T11:00:03.471Z,50.37
2023-09-19T11:02:30.327Z,48.91
2023-09-19T11:05:12.868Z,49.84
2023-09-19T11:08:02.621Z,46.59
2023-09-19T11:10:47.226Z,46.25
2023-09-19T11:13:25.834Z,47.54
2023-09-19T11:15:58.742Z,46.86
2023-09-19T11:18:43.987Z,47.60
2023-09-19T11:21:28.727Z,46.15
2023-09-19T11:24:16.972Z,44.65
2023-09-19T11:26:44.904Z,45.74
2023-09-19T11:29:27.059Z,45.28
2023-09-19T11:31:53.846Z,47.30
2023-09-19T11:34:39.901Z,46.48
2023-09-19T11:37:12.057Z,44.75
2023-09-19T11:39:39.653Z,44.55
2023-09-19T11:42:43.287Z,46.14
2023-09-19T11:45:41.929Z,46.08
2023-09-19T11:48:10.232Z,46.41
2023-09-19T11:50:37.520Z,45.80
2023-09-19T11:53:04.487Z,46.27
2023-09-19T11:55:31.107Z,46.02
2023-09-19T11:57:58.354Z,46.10
2023-09-19T12:00:24.870Z,47.05
2023-09-19T12:02:56.730Z,47.36
2023-09-19T12:05:32.628Z,46.56
2023-09-19T12:07:59.184Z,45.83
2023-09-19T12:10:26.149Z,46.97
2023-09-19T12:12:54.134Z,45.69
2023-09-19T12:15:27.166Z,44.15
2023-09-19T12:17:54.482Z,45.44
2023-09-19T12:20:21.063Z,43.94
2023-09-19T12:22:49.038Z,44.92
2023-09-19T12:25:15.801Z,46.17
2023-09-19T12:27:42.791Z,44.10
2023-09-19T12:30:24.607Z,45.40
2023-09-19T12:32:53.958Z,45.22
2023-09-19T12:35:31.095Z,44.06
2023-09-19T12:37:57.654Z,42.77
2023-09-19T12:40:26.189Z,43.60
2023-09-19T12:42:55.132Z,43.24
2023-09-19T12:45:22.008Z,44.14
2023-09-19T12:48:19.314Z,45.38
2023-09-19T12:51:05.661Z,43.47
2023-09-19T12:53:33.705Z,42.71
2023-09-19T12:56:01.399Z,43.79
2023-09-19T12:58:28.140Z,44.30
2023-09-19T13:00:54.635Z,42.78
2023-09-19T13:03:24.342Z,44.28
2023-09-19T13:05:52.474Z,43.26
2023-09-19T13:08:29.999Z,43.75
2023-09-19T13:11:06.037Z,43.09
2023-09-19T13:13:33.578Z,42.74
2023-09-19T13:16:00.574Z,42.64
2023-09-19T13:18:27.015Z,43.03
2023-09-19T13:21:10.243Z,42.27
2023-09-19T13:23:36.629Z,43.06
2023-09-19T13:26:03.113Z,43.19
2023-09-19T13:28:29.885Z,44.08
2023-09-19T13:30:56.280Z,43.71
2023-09-19T13:33:22.706Z,43.88
2023-09-19T13:35:49.522Z,43.77
2023-09-19T13:38:16.061Z,43.28
2023-09-19T13:40:42.559Z,44.37
2023-09-19T13:43:09.332Z,45.53
2023-09-19T13:45:35.988Z,46.41
2023-09-19T13:48:02.531Z,45.86
2023-09-19T13:50:29.212Z,45.56
2023-09-19T13:52:55.677Z,44.15
2023-09-19T13:55:22.556Z,44.83
2023-09-19T13:57:49.487Z,45.13
2023-09-19T14:00:15.992Z,44.49
2023-09-19T14:02:42.933Z,44.87
2023-09-19T14:05:09.712Z,45.69
2023-09-19T14:07:36.125Z,45.69
2023-09-19T14:10:02.788Z,45.01
2023-09-19T14:12:29.532Z,44.63
2023-09-19T14:14:55.854Z,44.79
2023-09-19T14:17:22.361Z,45.02
2023-09-19T14:19:48.856Z,45.04
2023-09-19T14:22:15.369Z,46.19
2023-09-19T14:24:41.834Z,46.28
2023-09-19T14:27:08.328Z,45.17
2023-09-19T14:29:34.900Z,44.54
2023-09-19T14:32:01.445Z,45.15
2023-09-19T14:34:27.902Z,45.76
2023-09-19T14:36:54.439Z,45.22
2023-09-19T14:39:21.218Z,45.53
2023-09-19T14:41:47.675Z,45.68
2023-09-19T14:44:14.430Z,46.75
2023-09-19T14:46:40.921Z,47.46
2023-09-19T14:49:07.889Z,45.31
2023-09-19T14:51:34.328Z,46.21
2023-09-19T14:54:00.903Z,46.30
2023-09-19T14:56:27.396Z,46.86
2023-09-19T14:58:53.801Z,46.41
2023-09-19T15:01:20.307Z,47.20
2023-09-19T15:03:47.082Z,45.75
2023-09-19T15:06:14.097Z,47.50
2023-09-19T15:08:40.645Z,46.97
2023-09-19T15:11:10.481Z,46.14
2023-09-19T15:13:37.813Z,45.04
2023-09-19T15:16:06.531Z,45.50
2023-09-19T15:18:32.942Z,47.08
2023-09-19T15:21:02.039Z,46.61
2023-09-19T15:23:32.446Z,46.95
2023-09-19T15:25:59.656Z,45.92
2023-09-19T15:28:26.148Z,45.33
2023-09-19T15:31:02.146Z,45.32
2023-09-19T15:33:29.134Z,45.85
2023-09-19T15:36:07.898Z,46.10
2023-09-19T15:38:56.837Z,45.34
2023-09-19T15:41:23.954Z,45.82
2023-09-19T15:43:50.429Z,45.95
2023-09-19T15:46:17.259Z,46.90
2023-09-19T15:48:43.844Z,45.80
2023-09-19T15:51:10.305Z,46.82
2023-09-19T15:53:48.439Z,46.83
2023-09-19T15:56:15.859Z,47.31
2023-09-19T15:58:45.485Z,47.77
2023-09-19T16:01:12.549Z,46.93
2023-09-19T16:03:40.658Z,47.87
2023-09-19T16:06:11.273Z,47.83
2023-09-19T16:08:42.256Z,48.47
2023-09-19T16:11:09.287Z,48.58
2023-09-19T16:13:40.499Z,48.67
2023-09-19T16:16:08.807Z,48.94
2023-09-19T16:18:36.894Z,48.83
2023-09-19T16:21:07.085Z,48.89
2023-09-19T16:23:33.509Z,49.76
2023-09-19T16:26:08.403Z,50.14
2023-09-19T16:28:39.867Z,49.42
2023-09-19T16:31:08.426Z,50.01
2023-09-19T16:33:37.260Z,50.69
2023-09-19T16:36:08.760Z,50.33
2023-09-19T16:38:35.262Z,50.28
2023-09-19T16:41:01.753Z,50.43
2023-09-19T16:43:28.850Z,50.62
2023-09-19T16:46:00.516Z,50.63
2023-09-19T16:48:28.757Z,51.44
2023-09-19T16:50:55.247Z,51.45
2023-09-19T16:53:22.405Z,50.74
2023-09-19T16:55:49.527Z,51.65
2023-09-19T16:58:17.139Z,51.10
2023-09-19T17:00:44.437Z,51.13
2023-09-19T17:03:10.980Z,51.28
2023-09-19T17:05:38.175Z,50.89
2023-09-19T17:08:05.320Z,51.30
2023-09-19T17:10:32.588Z,51.18
2023-09-19T17:12:59.766Z,52.11
2023-09-19T17:15:26.527Z,52.13
2023-09-19T17:17:54.127Z,52.43
2023-09-19T17:20:20.680Z,52.53
2023-09-19T17:22:50.694Z,53.15
2023-09-19T17:25:17.758Z,53.85
2023-09-19T17:27:44.195Z,54.04
2023-09-19T17:30:12.457Z,55.29
2023-09-19T17:32:38.922Z,55.04
2023-09-19T17:35:06.086Z,55.48
2023-09-19T17:37:34.377Z,56.18
2023-09-19T17:40:01.426Z,55.47
2023-09-19T17:42:28.750Z,56.04
2023-09-19T17:44:55.248Z,56.41
2023-09-19T17:47:24.633Z,57.25
2023-09-19T17:49:51.158Z,57.64
2023-09-19T17:52:18.137Z,57.71
2023-09-19T17:54:45.606Z,58.13
2023-09-19T17:57:12.194Z,58.91
2023-09-19T17:59:38.633Z,58.75
2023-09-19T18:02:05.151Z,58.61
2023-09-19T18:04:31.678Z,60.55
2023-09-19T18:06:58.964Z,60.08
2023-09-19T18:09:25.585Z,60.01
2023-09-19T18:11:52.090Z,60.81
2023-09-19T18:14:21.780Z,60.43
2023-09-19T18:16:48.377Z,61.02
2023-09-19T18:19:14.885Z,60.23
2023-09-19T18:21:41.334Z,60.00
2023-09-19T18:24:09.328Z,60.01
2023-09-19T18:26:36.480Z,60.00
2023-09-19T18:29:03.146Z,59.78
2023-09-19T18:31:30.304Z,60.22
2023-09-19T18:33:56.920Z,60.87
2023-09-19T18:36:23.482Z,60.26
2023-09-19T18:38:50.294Z,60.07
2023-09-19T18:41:16.994Z,60.02
2023-09-19T18:43:44.234Z,60.38
2023-09-19T18:46:10.865Z,60.58
2023-09-19T18:48:38.675Z,60.34
2023-09-19T18:51:09.311Z,60.64
2023-09-19T18:53:37.526Z,60.43
2023-09-19T18:56:09.246Z,60.16
2023-09-19T18:58:36.237Z,60.78
2023-09-19T19:01:08.246Z,60.31
2023-09-19T19:03:35.641Z,60.58
2023-09-19T19:06:06.558Z,60.63
2023-09-19T19:08:33.752Z,60.74
2023-09-19T19:11:01.058Z,60.93
2023-09-19T19:13:27.708Z,60.56
2023-09-19T19:15:58.099Z,61.02
2023-09-19T19:18:24.644Z,60.69
2023-09-19T19:21:00.376Z,61.25
2023-09-19T19:23:26.834Z,61.42
2023-09-19T19:25:54.767Z,60.86
2023-09-19T19:28:23.081Z,61.46
2023-09-19T19:30:53.008Z,61.74
2023-09-19T19:33:19.487Z,62.29
2023-09-19T19:35:46.206Z,62.26
2023-09-19T19:38:12.705Z,62.52
2023-09-19T19:40:39.244Z,63.06
2023-09-19T19:43:05.739Z,62.82
2023-09-19T19:45:32.221Z,62.95
2023-09-19T19:47:58.956Z,62.80
2023-09-19T19:50:26.553Z,63.82
2023-09-19T19:52:54.133Z,63.95
2023-09-19T19:55:20.750Z,63.56
2023-09-19T19:57:49.590Z,64.29
2023-09-19T20:00:16.763Z,63.91
2023-09-19T20:02:45.367Z,64.15
2023-09-19T20:05:12.069Z,64.41
2023-09-19T20:07:38.717Z,64.91
2023-09-19T20:10:05.852Z,64.04
2023-09-19T20:12:32.292Z,63.99
2023-09-19T20:14:59.675Z,64.17
2023-09-19T20:17:26.248Z,64.59
2023-09-19T20:19:53.051Z,64.40
2023-09-19T20:22:19.973Z,64.61
2023-09-19T20:24:46.431Z,64.63
2023-09-19T20:27:12.901Z,64.32
2023-09-19T20:29:42.256Z,64.03
2023-09-19T20:32:08.997Z,63.56
2023-09-19T20:34:35.982Z,63.56
2023-09-19T20:37:03.466Z,63.58
2023-09-19T20:39:30.261Z,63.87
2023-09-19T20:41:58.921Z,63.51
2023-09-19T20:44:25.448Z,63.51
2023-09-19T20:46:52.385Z,63.22
2023-09-19T20:49:19.414Z,63.36
2023-09-19T20:51:45.774Z,63.61
2023-09-19T20:54:12.200Z,63.71
2023-09-19T20:56:39.582Z,63.70
2023-09-19T20:59:07.203Z,64.21
2023-09-19T21:01:33.778Z,64.40
2023-09-19T21:04:00.332Z,64.51
2023-09-19T21:06:26.819Z,65.27
2023-09-19T21:08:53.677Z,65.49
2023-09-19T21:11:21.965Z,66.23
2023-09-19T21:13:50.428Z,66.54
2023-09-19T21:16:17.218Z,66.56
2023-09-19T21:18:45.778Z,67.49
2023-09-19T21:21:13.115Z,66.94
2023-09-19T21:23:40.394Z,67.42
2023-09-19T21:26:09.815Z,67.50
2023-09-19T21:28:36.399Z,67.71
2023-09-19T21:31:10.486Z,68.35
2023-09-19T21:33:41.064Z,68.50
2023-09-19T21:36:09.412Z,68.83
2023-09-19T21:38:40.176Z,68.95
2023-09-19T21:41:11.752Z,69.45
2023-09-19T21:43:39.100Z,69.36
2023-09-19T21:46:05.725Z,69.98
2023-09-19T21:48:34.895Z,69.63
2023-09-19T21:51:01.718Z,70.27
2023-09-19T21:53:28.361Z,70.01
2023-09-19T21:56:03.706Z,70.62
2023-09-19T21:58:31.144Z,70.32
2023-09-19T22:00:57.609Z,70.55
2023-09-19T22:03:24.487Z,70.73
2023-09-19T22:05:50.868Z,70.93
2023-09-19T22:08:17.532Z,70.82
2023-09-19T22:10:44.664Z,70.62
2023-09-19T22:13:11.503Z,70.37
2023-09-19T22:15:38.024Z,70.92
2023-09-19T22:18:06.217Z,70.76
2023-09-19T22:20:32.681Z,71.13
2023-09-19T22:23:00.256Z,71.21
2023-09-19T22:25:27.827Z,71.08
2023-09-19T22:27:54.487Z,70.83
2023-09-19T22:30:21.262Z,71.63
2023-09-19T22:32:47.738Z,71.47
2023-09-19T22:35:14.623Z,71.54
2023-09-19T22:37:41.057Z,71.55
2023-09-19T22:40:08.510Z,71.72
2023-09-19T22:42:34.976Z,71.80
2023-09-19T22:45:01.709Z,71.47
2023-09-19T22:47:28.209Z,72.17
2023-09-19T22:49:54.849Z,71.99
2023-09-19T22:52:21.342Z,71.82
2023-09-19T22:54:47.793Z,72.02
2023-09-19T22:57:14.277Z,71.98
2023-09-19T22:59:41.366Z,71.20
2023-09-19T23:02:07.935Z,71.09
2023-09-19T23:04:34.462Z,71.57
2023-09-19T23:07:00.939Z,71.27
2023-09-19T23:09:28.917Z,71.31
2023-09-19T23:12:02.766Z,70.98
2023-09-19T23:14:30.072Z,70.70
2023-09-19T23:16:56.617Z,71.02
2023-09-19T23:19:25.199Z,70.96
2023-09-19T23:21:51.717Z,71.04
2023-09-19T23:24:18.821Z,71.29
2023-09-19T23:26:45.264Z,71.32
2023-09-19T23:29:11.922Z,71.27
2023-09-19T23:31:38.331Z,71.30
2023-09-19T23:34:05.005Z,71.03
2023-09-19T23:36:31.456Z,71.16
2023-09-19T23:38:57.884Z,71.30
2023-09-19T23:41:24.715Z,71.32
2023-09-19T23:43:51.352Z,71.51
2023-09-19T23:46:17.814Z,71.57
2023-09-19T23:48:44.259Z,71.47
2023-09-19T23:51:10.844Z,71.70
2023-09-19T23:53:37.401Z,71.65
2023-09-19T23:56:04.414Z,71.80
2023-09-19T23:58:30.752Z,71.73
